Time;durP1;ratioP1;P1;durP2;ratioP2;P2;SDS_P1;SDS_P2;PMS_P1;PMS_P2;Temp;Humidity;BMP_temperature;BMP_pressure;BME280_temperature;BME280_humidity;BME280_pressure;Samples;Min_cycle;Max_cycle;Signal;HPM_P1;HPM_P2
2023/07/25 06:04:18;;;;;;;;;10.00;8.00;;;;;15.52;100.00;100464.94;1991686;28;2762105;-75
2023/07/25 06:05:30;;;;;;;;;9.50;8.25;;;;;15.78;97.67;100474.09;2040276;28;2742978;-74
2023/07/25 06:06:40;;;;;;;;;7.00;7.00;;;;;16.05;96.33;100465.44;2015252;28;2733594;-75
2023/07/25 06:07:51;;;;;;;;;6.67;6.00;;;;;16.31;95.12;100476.25;2028341;28;3447136;-74
2023/07/25 06:09:02;;;;;;;;;7.33;6.33;;;;;16.58;93.41;100466.66;2030546;28;2739958;-72
2023/07/25 06:10:13;;;;;;;;;9.33;5.00;;;;;16.86;91.36;100473.72;2025232;28;3476779;-73
2023/07/25 06:11:25;;;;;;;;;6.75;6.50;;;;;17.11;89.94;100476.59;2040928;28;2734632;-73
2023/07/25 06:12:35;;;;;;;;;6.00;6.00;;;;;17.32;89.57;100482.31;2016259;28;3448147;-73
2023/07/25 06:13:49;;;;;;;;;4.67;4.67;;;;;17.53;88.80;100473.88;2038402;28;2742991;-73
2023/07/25 06:14:59;;;;;;;;;5.33;5.00;;;;;17.71;88.32;100476.25;2008578;28;1813809;-73
2023/07/25 06:16:11;;;;;;;;;5.75;5.00;;;;;17.90;86.81;100475.00;2021096;28;2746115;-73
2023/07/25 06:17:21;;;;;;;;;6.00;4.67;;;;;18.06;85.12;100479.25;2029141;28;1821117;-73
2023/07/25 06:18:32;;;;;;;;;5.00;4.00;;;;;18.21;85.09;100480.03;2008363;28;2748186;-73
2023/07/25 06:19:43;;;;;;;;;3.00;2.00;;;;;18.32;84.67;100481.94;2044020;28;2748236;-73
2023/07/25 06:20:54;;;;;;;;;6.67;5.33;;;;;18.44;83.26;100483.75;1990251;28;3459608;-73
2023/07/25 06:22:05;;;;;;;;;5.00;5.00;;;;;18.55;82.57;100490.09;2029462;28;2748162;-73
2023/07/25 06:23:16;;;;;;;;;4.00;4.00;;;;;18.64;83.00;100486.78;2016943;28;2740897;-73
2023/07/25 06:24:27;;;;;;;;;3.67;3.67;;;;;18.74;82.98;100478.16;2028535;28;2741979;-73
2023/07/25 06:25:39;;;;;;;;;6.00;6.00;;;;;18.84;82.64;100484.50;2040703;28;2725368;-73
2023/07/25 06:26:52;;;;;;;;;8.17;5.50;;;;;18.94;81.66;100483.84;2041221;28;2735694;-73
2023/07/25 06:28:05;;;;;;;;;6.25;6.25;;;;;19.02;81.11;100484.13;2006179;28;1810748;-73
2023/07/25 06:29:15;;;;;;;;;5.00;5.00;;;;;19.10;80.28;100491.53;2016200;28;2744754;-73
2023/07/25 06:30:26;;;;;;;;;5.33;5.33;;;;;19.17;79.94;100494.59;2032533;28;3441928;-73
2023/07/25 06:31:37;;;;;;;;;4.00;3.00;;;;;19.22;79.89;100487.16;2022089;28;2753421;-73
2023/07/25 06:32:48;;;;;;;;;8.67;6.00;;;;;19.29;79.77;100493.72;2027839;28;2742350;-73
2023/07/25 06:33:59;;;;;;;;;6.00;6.00;;;;;19.34;78.78;100491.56;2039500;28;2730508;-73
2023/07/25 06:35:09;;;;;;;;;7.00;5.67;;;;;19.40;78.97;100494.75;1990674;28;3460694;-73
2023/07/25 06:36:20;;;;;;;;;4.67;4.67;;;;;19.43;78.63;100498.00;2029171;28;3458585;-73
2023/07/25 06:37:36;;;;;;;;;6.00;5.33;;;;;19.50;78.60;100485.09;2029331;28;2735757;-73
2023/07/25 06:38:46;;;;;;;;;6.00;5.00;;;;;19.55;78.68;100488.28;2012181;28;2745129;-73
2023/07/25 06:40:00;;;;;;;;;4.00;3.00;;;;;19.62;78.52;100495.78;2033439;28;2752822;-73
2023/07/25 06:41:10;;;;;;;;;5.00;5.00;;;;;19.68;77.81;100497.97;2016597;28;2745170;-73
2023/07/25 06:42:21;;;;;;;;;6.33;6.00;;;;;19.73;77.64;100489.66;2031478;28;2734636;-73
2023/07/25 06:43:32;;;;;;;;;6.00;6.00;;;;;19.76;77.03;100492.94;2028004;28;2742961;-70
2023/07/25 06:44:43;;;;;;;;;6.00;6.00;;;;;19.79;77.05;100489.19;2041600;28;2730490;-73
2023/07/25 06:45:54;;;;;;;;;7.33;6.00;;;;;19.84;76.67;100494.16;2015379;28;2740021;-73
2023/07/25 06:47:05;;;;;;;;;7.00;5.67;;;;;19.87;76.56;100483.25;2031391;28;2739940;-73
2023/07/25 06:48:16;;;;;;;;;6.67;6.33;;;;;19.89;75.75;100490.19;2022971;28;3448169;-73
2023/07/25 06:49:27;;;;;;;;;6.33;6.00;;;;;19.92;76.43;100490.91;2030160;28;3452363;-73
2023/07/25 06:50:37;;;;;;;;;5.33;5.33;;;;;19.95;76.06;100496.00;2030315;28;2739952;-73
2023/07/25 06:51:48;;;;;;;;;7.67;7.33;;;;;19.98;75.65;100496.59;2041475;28;2734145;-73
2023/07/25 06:52:59;;;;;;;;;9.00;7.00;;;;;20.01;75.79;100493.72;1991450;28;2734629;-73
2023/07/25 06:54:11;;;;;;;;;10.20;8.20;;;;;20.02;75.18;100500.75;2042388;28;1819571;-73
2023/07/25 06:55:22;;;;;;;;;9.50;7.75;;;;;20.06;75.54;100500.50;2023604;28;1831632;-73
2023/07/25 06:56:32;;;;;;;;;7.00;5.00;;;;;20.08;75.44;100509.22;2017627;28;3462745;-73
2023/07/25 06:57:43;;;;;;;;;7.67;6.67;;;;;20.12;75.69;100505.41;2047772;28;1811724;-73
2023/07/25 06:58:57;;;;;;;;;6.67;6.67;;;;;20.15;75.23;100502.47;2021602;28;1835786;-73
2023/07/25 07:00:09;;;;;;;;;8.00;7.50;;;;;20.18;75.19;100506.72;2005298;28;1813877;-73
2023/07/25 07:01:27;;;;;;;;;10.00;9.17;;;;;20.20;74.32;100513.63;2046552;28;1820090;-73
2023/07/25 07:02:37;;;;;;;;;10.00;9.67;;;;;20.21;74.23;100519.84;1990381;28;3492929;-73
2023/07/25 07:03:49;;;;;;;;;11.00;8.00;;;;;20.21;73.85;100520.69;2045354;28;1827371;-73
2023/07/25 07:05:00;;;;;;;;;13.50;11.00;;;;;20.21;73.76;100519.84;1974748;28;2787763;-73
2023/07/25 07:06:11;;;;;;;;;8.00;8.00;;;;;20.20;73.60;100524.31;1975715;28;2740905;-73
2023/07/25 07:07:24;;;;;;;;;10.33;10.33;;;;;20.19;73.31;100522.63;2038562;28;2789823;-73
2023/07/25 07:08:35;;;;;;;;;12.50;10.50;;;;;20.20;73.27;100528.81;1992525;28;2792277;-73
2023/07/25 07:09:46;;;;;;;;;10.00;10.00;;;;;20.21;72.70;100533.19;1993871;28;2790170;-73
2023/07/25 07:10:57;;;;;;;;;12.50;12.00;;;;;20.21;72.67;100541.19;1995245;28;2784666;-73
2023/07/25 07:12:09;;;;;;;;;12.40;11.20;;;;;20.20;73.00;100534.16;2010924;28;1826281;-73
2023/07/25 07:13:23;;;;;;;;;12.43;12.43;;;;;20.22;72.55;100545.56;2036787;28;1820062;-73
2023/07/25 07:14:36;;;;;;;;;11.80;11.80;;;;;20.22;72.64;100538.38;2024748;28;2792973;-73
2023/07/25 07:15:49;;;;;;;;;12.33;11.33;;;;;20.23;71.91;100540.09;2009130;28;2788861;-73
2023/07/25 07:17:01;;;;;;;;;16.00;13.00;;;;;20.25;72.10;100547.97;1970353;28;2788904;-73
2023/07/25 07:18:11;;;;;;;;;12.00;12.00;;;;;20.24;71.23;100557.81;2006858;28;2791969;-73
2023/07/25 07:19:22;;;;;;;;;16.00;15.00;;;;;20.23;71.20;100558.78;1994725;28;2797217;-73
2023/07/25 07:20:34;;;;;;;;;12.60;11.00;;;;;20.20;71.32;100561.66;1994044;28;3517919;-72
2023/07/25 07:21:45;;;;;;;;;12.00;10.50;;;;;20.20;71.22;100560.84;2011769;28;2788299;-73
2023/07/25 07:22:56;;;;;;;;;12.50;10.00;;;;;20.19;70.99;100560.00;1990079;28;2784615;-73
2023/07/25 07:24:08;;;;;;;;;13.33;11.00;;;;;20.19;70.78;100567.13;1990451;28;2801328;-72
2023/07/25 07:25:21;;;;;;;;;14.00;10.83;;;;;20.18;70.87;100568.94;2027379;28;1820097;-73
2023/07/25 07:26:31;;;;;;;;;10.00;10.00;;;;;20.20;70.85;100569.69;1977639;28;2784681;-73
2023/07/25 07:27:42;;;;;;;;;13.50;12.50;;;;;20.20;70.04;100576.84;2018889;28;2806524;-73
2023/07/25 07:28:54;;;;;;;;;13.50;11.50;;;;;20.19;70.32;100576.00;1995132;28;2797091;-73
2023/07/25 07:30:05;;;;;;;;;10.00;10.00;;;;;20.18;70.11;100574.28;1994052;28;2789835;-73
2023/07/25 07:31:21;;;;;;;;;13.00;12.00;;;;;20.17;69.98;100579.75;1967095;28;2787759;-73
2023/07/25 07:32:35;;;;;;;;;12.86;11.71;;;;;20.16;69.67;100592.22;2007674;28;1831554;-72
2023/07/25 07:33:46;;;;;;;;;9.50;9.50;;;;;20.17;69.68;100585.09;1997984;28;2773193;-73
2023/07/25 07:34:57;;;;;;;;;12.25;11.25;;;;;20.16;69.13;100584.22;1998050;28;1832181;-72
2023/07/25 07:36:07;;;;;;;;;10.00;10.00;;;;;20.16;69.34;100586.03;1971562;28;2789819;-73
2023/07/25 07:37:18;;;;;;;;;12.00;10.00;;;;;20.16;69.31;100586.91;1990366;28;2786751;-73
2023/07/25 07:38:29;;;;;;;;;13.00;11.00;;;;;20.15;69.03;100585.19;1989056;28;2778356;-72
2023/07/25 07:39:41;;;;;;;;;11.00;9.50;;;;;20.16;69.07;100588.72;1999730;28;1821128;-72
2023/07/25 07:40:51;;;;;;;;;10.00;10.00;;;;;20.13;69.24;100595.97;1969536;28;2784654;-72
2023/07/25 07:42:03;;;;;;;;;11.00;8.00;;;;;20.13;68.76;100598.66;1989859;28;2762801;-72
2023/07/25 07:43:15;;;;;;;;;10.50;9.00;;;;;20.11;68.81;100595.25;1971556;28;2769549;-72
2023/07/25 07:44:26;;;;;;;;;11.00;10.00;;;;;20.11;69.08;100605.94;1973956;28;2778424;-72
2023/07/25 07:45:37;;;;;;;;;12.50;10.00;;;;;20.12;68.88;100604.94;1989521;28;2784608;-72
2023/07/25 07:46:48;;;;;;;;;11.50;8.25;;;;;20.12;68.49;100609.44;2004834;28;1825399;-72
2023/07/25 07:47:58;;;;;;;;;7.33;7.33;;;;;20.12;68.28;100612.94;1980033;28;3449192;-73
2023/07/25 07:49:09;;;;;;;;;9.00;8.00;;;;;20.11;67.93;100613.94;2016435;28;3460678;-72
2023/07/25 07:50:20;;;;;;;;;10.00;8.50;;;;;20.10;68.04;100619.38;2013486;28;2761703;-72
2023/07/25 07:51:31;;;;;;;;;7.33;6.00;;;;;20.10;67.08;100619.38;2014846;28;2737810;-70
2023/07/25 07:52:42;;;;;;;;;7.00;7.00;;;;;20.07;67.81;100620.44;2012142;28;2744073;-71
2023/07/25 07:53:54;;;;;;;;;5.50;5.00;;;;;20.06;66.88;100624.06;2027816;28;1823216;-70
2023/07/25 07:55:04;;;;;;;;;6.33;6.00;;;;;20.04;67.28;100623.34;2016172;28;1804477;-70
2023/07/25 07:56:15;;;;;;;;;5.00;5.00;;;;;20.01;66.90;100619.06;1983211;28;2739927;-70
2023/07/25 07:57:26;;;;;;;;;5.00;5.00;;;;;20.00;66.67;100628.03;2011702;28;2735747;-70
2023/07/25 07:58:37;;;;;;;;;6.00;6.00;;;;;19.97;67.10;100628.28;2011867;28;2471106;-70
2023/07/25 07:59:48;;;;;;;;;5.67;5.67;;;;;19.95;67.00;100621.38;2020242;28;2730474;-70
2023/07/25 08:01:01;;;;;;;;;7.00;6.33;;;;;19.95;66.38;100629.38;1999099;28;2734646;-70
2023/07/25 08:02:11;;;;;;;;;6.33;6.33;;;;;19.93;66.66;100636.63;1980328;28;2731539;-70
2023/07/25 08:03:22;;;;;;;;;8.00;7.00;;;;;19.90;66.61;100635.03;2027163;28;1812799;-70
2023/07/25 08:04:33;;;;;;;;;8.00;8.00;;;;;19.89;66.57;100633.34;2012093;28;3455796;-70
2023/07/25 08:05:44;;;;;;;;;5.67;5.67;;;;;19.88;66.65;100634.28;2038012;28;2735655;-72
2023/07/25 08:06:54;;;;;;;;;6.33;6.33;;;;;19.85;66.67;100627.38;1992520;28;2726395;-72
2023/07/25 08:08:06;;;;;;;;;6.67;6.00;;;;;19.83;66.55;100639.97;2026396;28;2739837;-72
2023/07/25 08:09:17;;;;;;;;;5.00;5.00;;;;;19.82;66.43;100642.75;2035684;28;2736787;-72
2023/07/25 08:10:28;;;;;;;;;5.33;5.00;;;;;19.81;66.10;100646.38;1993590;28;2748196;-72
2023/07/25 08:11:40;;;;;;;;;6.50;5.50;;;;;19.81;66.39;100643.72;2037446;28;2745076;-71
2023/07/25 08:12:53;;;;;;;;;5.67;5.00;;;;;19.79;66.06;100650.03;2043645;28;2743027;-72
2023/07/25 08:14:03;;;;;;;;;6.67;5.00;;;;;19.78;66.04;100653.63;1995236;28;2739875;-72
2023/07/25 08:15:14;;;;;;;;;6.67;5.00;;;;;19.77;65.55;100657.28;2032995;28;3456490;-72
2023/07/25 08:16:25;;;;;;;;;4.00;4.00;;;;;19.76;65.63;100654.72;2031808;28;2749247;-73
2023/07/25 08:17:36;;;;;;;;;4.33;3.00;;;;;19.73;65.17;100661.13;2023419;28;2753470;-73
2023/07/25 08:18:47;;;;;;;;;4.00;4.00;;;;;19.70;65.53;100664.03;2015054;28;2754792;-73
2023/07/25 08:19:59;;;;;;;;;3.20;2.40;;;;;19.66;65.66;100676.72;2037476;28;2725291;-73
2023/07/25 08:21:13;;;;;;;;;2.67;2.67;;;;;19.66;64.98;100665.22;2043487;28;2737276;-71
2023/07/25 08:22:23;;;;;;;;;2.00;2.00;;;;;19.63;64.47;100665.44;1991272;28;2751318;-72
2023/07/25 08:23:34;;;;;;;;;4.67;3.33;;;;;19.62;64.91;100674.41;2041726;28;2738270;-72
2023/07/25 08:24:44;;;;;;;;;2.33;2.33;;;;;19.61;64.90;100672.69;2019221;28;2748198;-72
2023/07/25 08:25:56;;;;;;;;;3.67;3.00;;;;;19.60;64.80;100679.00;2027229;28;2754883;-72
2023/07/25 08:27:07;;;;;;;;;2.00;2.00;;;;;19.57;64.76;100674.75;2012526;28;2748170;-69
2023/07/25 08:28:20;;;;;;;;;2.17;2.17;;;;;19.55;65.12;100682.84;2047108;28;2746137;-74
2023/07/25 08:29:38;;;;;;;;;4.00;1.00;;;;;19.57;65.38;100677.41;2047891;28;2746108;-73
2023/07/25 08:31:02;;;;;;;;;2.00;2.00;;;;;19.61;65.56;100678.00;2018179;28;2735711;-73
2023/07/25 08:32:15;;;;;;;;;2.50;2.50;;;;;19.63;65.41;100678.78;2020718;28;2746500;-73
2023/07/25 08:33:31;;;;;;;;;3.00;2.00;;;;;19.66;64.96;100683.88;1980878;28;2754481;-72
2023/07/25 08:34:44;;;;;;;;;2.00;2.00;;;;;19.66;64.72;100683.88;2025570;28;2742973;-73
2023/07/25 08:35:58;;;;;;;;;2.00;2.00;;;;;19.67;64.85;100685.59;2017305;28;2741936;-72
2023/07/25 08:37:11;;;;;;;;;1.17;0.67;;;;;19.67;64.38;100681.13;2020997;28;2727369;-73
2023/07/25 08:38:24;;;;;;;;;2.17;1.17;;;;;19.67;64.67;100689.09;2019526;28;2732586;-73
2023/07/25 08:39:38;;;;;;;;;2.83;1.00;;;;;19.66;64.87;100686.53;2011501;28;2736055;-73
2023/07/25 08:41:19;;;;;;;;;1.17;1.17;;;;;19.64;64.45;100684.00;2014125;28;2732619;-73
2023/07/25 08:42:32;;;;;;;;;1.67;1.67;;;;;19.65;64.60;100695.50;2015385;28;2724713;-75
2023/07/25 08:43:47;;;;;;;;;1.50;1.50;;;;;19.66;65.29;100687.41;2019842;28;2738321;-75
2023/07/25 08:45:06;;;;;;;;;2.00;1.00;;;;;19.70;64.79;100693.38;2018864;28;2725385;-75
2023/07/25 08:46:20;;;;;;;;;2.00;2.00;;;;;19.73;64.55;100698.44;2015821;28;2739853;-75
2023/07/25 08:47:36;;;;;;;;;1.83;1.83;;;;;19.75;64.66;100695.69;2021866;28;2726395;-75
2023/07/25 08:48:54;;;;;;;;;1.00;1.00;;;;;19.76;64.15;100698.25;2014796;28;2732621;-75
2023/07/25 08:50:14;;;;;;;;;3.00;1.00;;;;;19.78;64.29;100706.13;2015050;28;2717436;-75
2023/07/25 08:51:28;;;;;;;;;2.00;1.00;;;;;19.77;64.20;100704.44;2017534;28;2722163;-75
2023/07/25 08:52:48;;;;;;;;;1.00;1.00;;;;;19.77;64.59;100710.63;2021631;28;2725283;-75
2023/07/25 08:54:02;;;;;;;;;2.00;2.00;;;;;19.78;63.67;100711.44;1984230;28;2748189;-75
2023/07/25 08:55:13;;;;;;;;;5.00;2.67;;;;;19.77;63.83;100715.94;2018982;28;2754424;-75
2023/07/25 08:56:27;;;;;;;;;2.83;1.33;;;;;19.78;64.32;100708.78;2045000;28;2726332;-74
2023/07/25 08:57:42;;;;;;;;;2.17;2.17;;;;;19.79;63.67;100723.84;2012007;28;2746197;-74
2023/07/25 08:58:55;;;;;;;;;3.00;3.00;;;;;19.79;63.74;100724.69;2008701;28;2754542;-74
2023/07/25 09:00:07;;;;;;;;;3.00;3.00;;;;;19.78;63.51;100728.31;1985102;28;2754415;-74
2023/07/25 09:01:19;;;;;;;;;4.00;2.67;;;;;19.77;63.72;100731.09;2008584;28;2749285;-73
2023/07/25 09:02:32;;;;;;;;;2.83;2.83;;;;;19.78;63.16;100732.78;2037311;28;2733639;-73
2023/07/25 09:03:47;;;;;;;;;3.00;3.00;;;;;19.81;63.39;100737.03;2019657;28;2754467;-73
2023/07/25 09:04:57;;;;;;;;;3.33;3.33;;;;;19.81;63.25;100745.91;1988790;28;2751474;-73
2023/07/25 09:06:12;;;;;;;;;2.00;2.00;;;;;19.82;63.42;100746.75;2030617;28;2748190;-73
2023/07/25 09:07:25;;;;;;;;;4.17;2.00;;;;;19.81;62.52;100758.38;2036224;28;2736093;-73
2023/07/25 09:08:35;;;;;;;;;7.00;2.67;;;;;19.76;62.42;100756.91;1991498;28;2750348;-70
2023/07/25 09:09:46;;;;;;;;;2.00;2.00;;;;;19.75;62.31;100763.22;2035957;28;2746495;-73
2023/07/25 09:11:00;;;;;;;;;1.00;1.00;;;;;19.73;61.89;100772.28;2038461;28;2715361;-73
2023/07/25 09:12:13;;;;;;;;;1.33;1.33;;;;;19.71;61.81;100767.03;2044207;28;2724260;-73
2023/07/25 09:13:26;;;;;;;;;2.33;2.17;;;;;19.69;61.21;100776.97;2020761;28;2725261;-73
2023/07/25 09:14:42;;;;;;;;;2.50;1.00;;;;;19.65;61.29;100780.81;2021483;28;2734688;-73
2023/07/25 09:15:55;;;;;;;;;1.00;0.00;;;;;19.60;61.28;100772.28;2016869;28;2721110;-74
2023/07/25 09:17:08;;;;;;;;;1.33;1.33;;;;;19.58;61.63;100774.22;2019065;28;2729449;-74
2023/07/25 09:18:23;;;;;;;;;1.50;1.50;;;;;19.57;61.89;100784.03;2020470;28;2720106;-70
2023/07/25 09:19:36;;;;;;;;;2.50;1.83;;;;;19.56;61.72;100783.16;2013038;28;2738818;-75
2023/07/25 09:20:49;;;;;;;;;1.00;1.00;;;;;19.55;61.38;100784.16;2011238;28;2724246;-74
2023/07/25 09:22:03;;;;;;;;;1.00;1.00;;;;;19.54;60.92;100784.25;2011014;28;2729463;-74
2023/07/25 09:23:21;;;;;;;;;2.00;2.00;;;;;19.50;61.51;100788.94;2012760;28;2728418;-74
2023/07/25 09:24:38;;;;;;;;;1.00;1.00;;;;;19.48;60.97;100790.88;2013296;28;2727432;-74
2023/07/25 09:26:03;;;;;;;;;1.83;1.17;;;;;19.45;61.04;100785.75;2015536;28;2734684;-74
2023/07/25 09:27:17;;;;;;;;;1.50;1.00;;;;;19.45;61.41;100797.28;2018202;28;2729429;-74
2023/07/25 09:28:31;;;;;;;;;0.17;0.17;;;;;19.45;61.36;100801.75;2017698;28;2725287;-74
2023/07/25 09:29:48;;;;;;;;;1.00;1.00;;;;;19.46;61.02;100798.09;2016444;28;2730462;-74
2023/07/25 09:31:04;;;;;;;;;2.00;2.00;;;;;19.44;61.14;100800.03;2021374;28;2737125;-74
2023/07/25 09:32:25;;;;;;;;;1.83;1.17;;;;;19.45;61.08;100807.06;2016440;28;2735700;-74
2023/07/25 09:33:39;;;;;;;;;2.50;1.00;;;;;19.44;61.09;100808.88;2016183;28;2725266;-75
2023/07/25 09:35:00;;;;;;;;;4.00;2.00;;;;;19.48;61.58;100811.34;1994527;28;2754506;-74
2023/07/25 09:36:13;;;;;;;;;0.67;0.67;;;;;19.54;61.28;100811.75;2045787;28;2730500;-74
2023/07/25 09:37:24;;;;;;;;;2.00;2.00;;;;;19.63;61.71;100820.06;1995923;28;2748179;-74
2023/07/25 09:38:36;;;;;;;;;2.25;1.00;;;;;19.71;61.85;100816.84;2043830;28;2714896;-74
2023/07/25 09:39:49;;;;;;;;;3.00;1.67;;;;;19.77;61.13;100822.63;2026114;28;2733665;-74
2023/07/25 09:41:03;;;;;;;;;0.83;0.00;;;;;19.85;61.28;100824.72;2022516;28;2691983;-74
2023/07/25 09:42:21;;;;;;;;;3.67;2.00;;;;;19.92;61.25;100821.63;2034533;28;2738794;-74
2023/07/25 09:43:34;;;;;;;;;1.83;1.83;;;;;19.96;60.53;100825.75;2011674;28;2737809;-75
2023/07/25 09:44:50;;;;;;;;;3.83;2.00;;;;;19.98;60.90;100824.69;2014799;28;2728411;-75
2023/07/25 09:46:03;;;;;;;;;2.33;2.33;;;;;19.99;60.41;100837.06;2021507;28;2746143;-75
2023/07/25 09:47:25;;;;;;;;;2.00;2.00;;;;;20.00;60.17;100836.09;1995670;28;2744015;-74
2023/07/25 09:48:36;;;;;;;;;4.33;4.33;;;;;19.99;60.07;100831.75;2016457;28;2743070;-76
2023/07/25 09:49:48;;;;;;;;;2.00;2.00;;;;;20.00;60.24;100836.09;2038597;28;2732557;-75
2023/07/25 09:51:02;;;;;;;;;2.17;2.17;;;;;20.01;60.49;100839.63;2021089;28;2748189;-75
2023/07/25 09:52:16;;;;;;;;;2.50;2.50;;;;;20.02;60.37;100842.19;2012650;28;2741939;-74
2023/07/25 09:53:27;;;;;;;;;3.67;3.67;;;;;20.02;59.70;100839.53;1986040;28;2754544;-74
2023/07/25 09:54:38;;;;;;;;;2.33;2.33;;;;;20.04;59.84;100838.56;2028506;28;3465944;-74
2023/07/25 09:55:49;;;;;;;;;1.00;1.00;;;;;20.05;60.15;100846.44;2033376;28;2721205;-74
2023/07/25 09:57:03;;;;;;;;;4.50;2.33;;;;;20.04;59.76;100846.56;2035633;28;2734649;-75
2023/07/25 09:58:17;;;;;;;;;1.50;1.50;;;;;20.04;59.95;100843.88;2019148;28;2737781;-75
2023/07/25 09:59:30;;;;;;;;;3.67;3.17;;;;;20.04;60.02;100847.41;2014793;28;2741931;-74
2023/07/25 10:00:44;;;;;;;;;2.83;2.83;;;;;20.07;59.85;100851.69;2011063;28;2749266;-74
2023/07/25 10:01:57;;;;;;;;;3.17;2.33;;;;;20.07;60.08;100846.34;2014006;28;2737772;-75
2023/07/25 10:03:09;;;;;;;;;3.67;3.67;;;;;20.08;59.76;100853.38;1983688;28;2750380;-74
2023/07/25 10:04:24;;;;;;;;;3.67;3.67;;;;;20.08;59.84;100856.03;2035682;28;2736724;-75
2023/07/25 10:05:34;;;;;;;;;6.67;4.00;;;;;20.08;59.96;100850.69;1984912;28;3460049;-74
2023/07/25 10:06:47;;;;;;;;;4.33;3.00;;;;;20.09;59.85;100853.28;2018387;28;2740886;-74
2023/07/25 10:07:57;;;;;;;;;5.00;4.00;;;;;20.10;59.94;100854.13;2007084;28;2748229;-74
2023/07/25 10:09:10;;;;;;;;;5.67;3.67;;;;;20.10;59.81;100856.81;2014341;28;2746091;-75
2023/07/25 10:10:24;;;;;;;;;1.00;1.00;;;;;20.10;59.86;100854.13;2033740;28;2737828;-75
2023/07/25 10:11:35;;;;;;;;;8.00;5.00;;;;;20.09;59.96;100852.41;1986232;28;2747165;-75
2023/07/25 10:12:46;;;;;;;;;5.67;4.33;;;;;20.11;59.75;100855.84;2011184;28;2739872;-75
2023/07/25 10:13:57;;;;;;;;;6.50;6.00;;;;;20.12;59.83;100852.22;2043174;28;2742424;-75
2023/07/25 10:15:10;;;;;;;;;5.67;5.67;;;;;20.11;59.89;100850.50;2017399;28;2743041;-74
2023/07/25 10:16:21;;;;;;;;;5.33;5.00;;;;;20.14;59.89;100860.97;2018152;28;3457581;-74
2023/07/25 10:17:31;;;;;;;;;6.33;6.33;;;;;20.14;59.66;100850.31;2018449;28;2741956;-75
2023/07/25 10:18:42;;;;;;;;;8.00;6.67;;;;;20.15;59.50;100857.31;2030750;28;3458594;-75
2023/07/25 10:19:54;;;;;;;;;7.33;7.33;;;;;20.16;59.78;100853.72;2023527;28;2744129;-74
2023/07/25 10:21:11;;;;;;;;;7.83;7.17;;;;;20.17;59.65;100854.56;2040656;28;2729468;-75
2023/07/25 10:22:39;;;;;;;;;7.67;7.67;;;;;20.19;59.88;100857.97;1994238;28;3444030;-75
2023/07/25 10:23:57;;;;;;;;;7.67;6.67;;;;;20.20;59.38;100863.19;2016689;28;2740902;-75
2023/07/25 10:25:20;;;;;;;;;8.33;7.00;;;;;20.22;59.24;100860.44;2015305;28;2737792;-75
2023/07/25 10:26:33;;;;;;;;;6.67;5.83;;;;;20.22;58.67;100863.91;2042446;28;2739860;-74
2023/07/25 10:27:44;;;;;;;;;6.00;6.00;;;;;20.23;59.06;100854.09;1985760;28;2736895;-74
2023/07/25 10:29:01;;;;;;;;;5.00;5.00;;;;;20.26;59.13;100861.03;2026010;28;2745069;-75
2023/07/25 10:30:26;;;;;;;;;4.00;4.00;;;;;20.29;59.14;100858.16;2013880;28;2744099;-74
2023/07/25 10:31:50;;;;;;;;;7.00;5.00;;;;;20.29;58.79;100855.50;2014052;28;2749340;-74
2023/07/25 10:33:02;;;;;;;;;9.00;5.67;;;;;20.31;59.14;100859.75;2009991;28;2750510;-74
2023/07/25 10:34:15;;;;;;;;;7.00;5.33;;;;;20.32;58.58;100857.94;2015422;28;2745125;-75
2023/07/25 10:35:49;;;;;;;;;3.67;3.67;;;;;20.35;58.73;100855.03;2007054;28;2752529;-75
2023/07/25 10:37:29;;;;;;;;;7.33;5.00;;;;;20.38;59.00;100852.13;2014581;28;2741520;-75
2023/07/25 10:38:40;;;;;;;;;5.00;5.00;;;;;20.40;58.61;100860.88;2011717;28;2752452;-70
2023/07/25 10:40:12;;;;;;;;;4.00;4.00;;;;;20.44;58.65;100865.06;2043150;28;2754440;-71
2023/07/25 10:41:23;;;;;;;;;6.33;6.33;;;;;20.44;58.59;100858.84;1990650;28;2743036;-71
2023/07/25 10:42:42;;;;;;;;;6.00;6.00;;;;;20.43;58.58;100844.66;2029863;28;3448681;-70
2023/07/25 10:43:53;;;;;;;;;7.67;6.33;;;;;20.45;58.15;100852.53;2018914;28;2736750;-71
2023/07/25 10:45:07;;;;;;;;;4.83;4.83;;;;;20.48;58.46;100852.31;2035406;28;2732576;-71
2023/07/25 10:46:33;;;;;;;;;8.33;7.00;;;;;20.52;58.47;100851.13;1988608;28;2730976;-71
2023/07/25 10:47:45;;;;;;;;;5.33;5.33;;;;;20.55;57.98;100858.03;2023390;28;3458565;-74
2023/07/25 10:48:59;;;;;;;;;4.33;4.33;;;;;20.57;58.09;100859.63;2010866;28;2748232;-75
2023/07/25 10:50:09;;;;;;;;;5.00;5.00;;;;;20.59;58.02;100856.88;2008160;28;2743087;-75
2023/07/25 10:51:21;;;;;;;;;4.33;4.33;;;;;20.63;58.08;100860.16;2029752;28;2750293;-75
2023/07/25 10:52:42;;;;;;;;;9.33;6.00;;;;;20.64;58.42;100862.69;2012227;28;2751365;-75
2023/07/25 10:54:09;;;;;;;;;6.50;5.83;;;;;20.66;57.35;100858.13;2039810;28;2735771;-75
2023/07/25 10:55:20;;;;;;;;;5.00;5.00;;;;;20.70;57.76;100869.41;1988822;28;3467960;-74
2023/07/25 10:56:31;;;;;;;;;6.33;6.33;;;;;20.73;57.77;100868.34;2024017;28;2736783;-74
2023/07/25 10:58:09;;;;;;;;;3.50;3.50;;;;;20.75;57.68;100872.59;2036998;28;2732604;-74
2023/07/25 10:59:19;;;;;;;;;5.67;5.67;;;;;20.78;57.31;100874.19;2011594;28;3463789;-74
2023/07/25 11:00:35;;;;;;;;;6.33;5.00;;;;;20.83;57.19;100871.16;2044574;28;2734652;-74
2023/07/25 11:01:47;;;;;;;;;10.33;6.00;;;;;20.88;57.58;100874.34;1992291;28;3476290;-74
2023/07/25 11:02:58;;;;;;;;;6.00;6.00;;;;;20.91;57.65;100885.63;2018118;28;2738799;-75
2023/07/25 11:04:27;;;;;;;;;7.00;7.00;;;;;20.98;57.91;100879.84;2033146;28;3455513;-74
2023/07/25 11:05:38;;;;;;;;;4.00;4.00;;;;;21.02;56.55;100884.03;2014182;28;2741943;-70
2023/07/25 11:06:53;;;;;;;;;6.00;6.00;;;;;21.04;56.73;100882.06;2035051;28;2740903;-74
2023/07/25 11:08:04;;;;;;;;;5.00;5.00;;;;;21.06;56.32;100880.16;2018925;28;2740928;-74
2023/07/25 11:09:16;;;;;;;;;6.75;6.75;;;;;21.08;55.99;100880.03;2038974;28;2737854;-75
2023/07/25 11:10:29;;;;;;;;;7.33;6.67;;;;;21.10;55.93;100878.97;2042135;28;2739861;-74
2023/07/25 11:11:44;;;;;;;;;6.67;6.33;;;;;21.12;56.19;100871.66;1994150;28;2736817;-75
2023/07/25 11:13:00;;;;;;;;;5.33;5.33;;;;;21.16;56.59;100876.78;2019380;28;2741964;-74
2023/07/25 11:14:15;;;;;;;;;6.00;6.00;;;;;21.18;56.35;100878.38;2039885;28;2731631;-75
2023/07/25 11:15:30;;;;;;;;;5.83;5.83;;;;;21.22;55.29;100881.66;2013641;28;2734661;-74
2023/07/25 11:16:41;;;;;;;;;6.33;6.00;;;;;21.22;55.50;100887.84;1984175;28;3450293;-74
2023/07/25 11:17:55;;;;;;;;;7.83;6.00;;;;;21.23;55.54;100884.22;2032772;28;2734648;-74
2023/07/25 11:19:06;;;;;;;;;5.00;4.67;;;;;21.24;55.89;100891.25;1984672;28;2749337;-75
2023/07/25 11:20:21;;;;;;;;;6.00;6.00;;;;;21.25;55.70;100884.97;2013523;28;2739953;-74
2023/07/25 11:21:36;;;;;;;;;4.00;4.00;;;;;21.27;55.44;100892.84;2008742;28;2746116;-75
2023/07/25 11:22:56;;;;;;;;;5.00;5.00;;;;;21.28;55.18;100885.69;2010283;28;3459656;-75
2023/07/25 11:24:11;;;;;;;;;6.00;5.33;;;;;21.29;55.35;100884.69;2036954;28;2738208;-75
2023/07/25 11:25:22;;;;;;;;;8.33;5.33;;;;;21.29;55.63;100885.56;1992348;28;2748804;-75
2023/07/25 11:26:33;;;;;;;;;6.33;5.00;;;;;21.30;54.86;100892.63;2017215;28;2748206;-75
2023/07/25 11:27:45;;;;;;;;;6.00;6.00;;;;;21.31;55.30;100893.47;2011869;28;2741009;-75
2023/07/25 11:29:01;;;;;;;;;5.00;5.00;;;;;21.32;55.48;100893.34;2014514;28;2750358;-75
2023/07/25 11:30:16;;;;;;;;;8.17;7.33;;;;;21.35;55.23;100894.94;2042423;28;2744016;-75
2023/07/25 11:31:26;;;;;;;;;7.33;5.33;;;;;21.36;54.76;100894.81;1991672;28;2745180;-75
2023/07/25 11:32:38;;;;;;;;;7.00;6.00;;;;;21.40;55.56;100897.25;2033878;28;3449184;-75
2023/07/25 11:33:51;;;;;;;;;7.00;6.17;;;;;21.42;54.74;100895.31;2040998;28;2727354;-75
2023/07/25 11:35:01;;;;;;;;;6.00;6.00;;;;;21.44;55.24;100891.53;1994657;28;2732565;-74
2023/07/25 11:36:12;;;;;;;;;5.33;5.33;;;;;21.46;54.81;100884.25;2029253;28;2746716;-75